createdAt,value
2022-10-18T00:00:09.894Z,25.10
2022-10-18T00:05:32.722Z,27.50
2022-10-18T00:10:35.419Z,26.80
2022-10-18T00:15:38.247Z,27.90
2022-10-18T00:20:40.885Z,30.40
2022-10-18T00:25:43.555Z,24.70
2022-10-18T00:30:46.353Z,27.50
2022-10-18T00:35:49.094Z,26.60
2022-10-18T00:40:51.753Z,24.00
2022-10-18T00:45:54.476Z,26.10
2022-10-18T00:50:57.520Z,25.90
2022-10-18T00:56:00.262Z,25.90
2022-10-18T01:01:02.964Z,27.60
2022-10-18T01:06:05.981Z,29.10
2022-10-18T01:12:00.801Z,27.10
2022-10-18T01:17:29.290Z,23.10
2022-10-18T01:22:36.587Z,28.90
2022-10-18T01:28:04.784Z,26.80
2022-10-18T01:33:40.703Z,21.90
2022-10-18T01:38:43.536Z,24.60
2022-10-18T01:43:46.905Z,23.40
2022-10-18T01:48:49.741Z,20.90
2022-10-18T01:53:52.564Z,22.90
2022-10-18T01:59:33.320Z,21.10
2022-10-18T02:04:51.436Z,21.20
2022-10-18T02:10:01.742Z,20.20
2022-10-18T02:15:05.231Z,20.90
2022-10-18T02:20:09.876Z,22.10
2022-10-18T02:25:21.255Z,21.50
2022-10-18T02:30:30.239Z,19.60
2022-10-18T02:35:36.699Z,20.30
2022-10-18T02:40:39.656Z,22.30
2022-10-18T02:45:42.393Z,18.20
2022-10-18T02:50:45.063Z,18.40
2022-10-18T02:55:47.744Z,18.00
2022-10-18T03:00:51.050Z,19.40
2022-10-18T03:05:53.683Z,19.00
2022-10-18T03:10:56.354Z,18.40
2022-10-18T03:15:59.095Z,16.20
2022-10-18T03:21:09.854Z,18.20
2022-10-18T03:26:13.675Z,20.00
2022-10-18T03:31:16.491Z,15.70
2022-10-18T03:36:19.164Z,18.80
2022-10-18T03:41:21.821Z,15.90
2022-10-18T03:46:24.557Z,17.50
2022-10-18T03:51:27.316Z,19.10
2022-10-18T03:56:29.971Z,15.90
2022-10-18T04:01:33.053Z,16.60
2022-10-18T04:06:35.805Z,16.20
2022-10-18T04:11:38.485Z,16.70
2022-10-18T04:16:41.277Z,14.40
2022-10-18T04:21:45.327Z,16.70
2022-10-18T04:26:48.066Z,19.20
2022-10-18T04:31:50.699Z,17.60
2022-10-18T04:36:56.632Z,18.10
2022-10-18T04:41:59.326Z,17.20
2022-10-18T04:47:01.979Z,15.80
2022-10-18T04:52:04.927Z,15.50
2022-10-18T04:57:12.127Z,17.90
2022-10-18T05:02:14.891Z,15.70
2022-10-18T05:07:18.004Z,15.30
2022-10-18T05:12:20.674Z,17.50
2022-10-18T05:17:23.350Z,15.70
2022-10-18T05:22:26.108Z,18.20
2022-10-18T05:27:29.254Z,14.30
2022-10-18T05:32:32.084Z,16.70
2022-10-18T05:37:35.440Z,15.70
2022-10-18T05:42:38.919Z,15.40
2022-10-18T05:47:41.725Z,16.20
2022-10-18T05:52:44.413Z,14.90
2022-10-18T05:57:50.630Z,16.50
2022-10-18T06:02:55.246Z,18.50
2022-10-18T06:08:00.871Z,16.00
2022-10-18T06:13:03.529Z,16.70
2022-10-18T06:18:06.722Z,17.70
2022-10-18T06:23:10.378Z,15.60
2022-10-18T06:28:13.346Z,16.40
2022-10-18T06:33:16.397Z,18.50
2022-10-18T06:38:19.109Z,19.10
2022-10-18T06:43:22.374Z,18.10
2022-10-18T06:48:26.049Z,18.80
2022-10-18T06:53:36.256Z,17.40
2022-10-18T06:58:42.190Z,21.20
2022-10-18T07:03:46.102Z,18.10
2022-10-18T07:08:49.769Z,19.30
2022-10-18T07:14:00.351Z,14.10
2022-10-18T07:19:03.360Z,15.10
2022-10-18T07:24:07.243Z,14.50
2022-10-18T07:29:11.660Z,18.80
2022-10-18T07:34:14.428Z,16.10
2022-10-18T07:39:17.113Z,16.30
2022-10-18T07:44:19.880Z,17.10
2022-10-18T07:49:22.637Z,13.10
2022-10-18T07:54:25.288Z,16.30
2022-10-18T07:59:27.987Z,12.20
2022-10-18T08:04:30.669Z,14.70
2022-10-18T08:09:33.333Z,14.60
2022-10-18T08:14:36.170Z,11.90
2022-10-18T08:19:44.654Z,13.80
2022-10-18T08:24:55.668Z,13.10
2022-10-18T08:29:59.883Z,12.40
2022-10-18T08:35:04.532Z,15.30
2022-10-18T08:40:13.395Z,16.50
2022-10-18T08:45:30.020Z,10.70
2022-10-18T08:50:39.296Z,14.00
2022-10-18T08:55:52.607Z,17.40
2022-10-18T09:01:49.776Z,13.60
2022-10-18T09:07:53.848Z,13.30
2022-10-18T09:13:21.523Z,15.20
2022-10-18T09:18:52.270Z,15.20
2022-10-18T09:24:38.623Z,14.80
2022-10-18T09:30:08.372Z,19.90
2022-10-18T09:35:21.870Z,17.60
2022-10-18T09:40:28.270Z,16.20
2022-10-18T09:45:37.833Z,17.90
2022-10-18T09:50:44.577Z,17.70
2022-10-18T09:56:26.202Z,16.20
2022-10-18T10:01:30.526Z,19.10
2022-10-18T10:06:38.932Z,17.40
2022-10-18T10:11:47.423Z,20.80
2022-10-18T10:16:59.273Z,20.60
2022-10-18T10:22:12.992Z,20.10
2022-10-18T10:27:29.640Z,18.00
2022-10-18T10:32:46.643Z,19.20
2022-10-18T10:37:53.428Z,16.80
2022-10-18T10:43:18.270Z,16.60
2022-10-18T10:48:33.633Z,20.50
2022-10-18T10:54:02.974Z,18.00
2022-10-18T10:59:17.667Z,15.80
2022-10-18T11:04:26.444Z,19.50
2022-10-18T11:10:10.904Z,15.30
2022-10-18T11:15:36.660Z,16.20
2022-10-18T11:20:48.217Z,17.10
2022-10-18T11:26:12.507Z,20.30
2022-10-18T11:31:28.274Z,16.70
2022-10-18T11:36:54.637Z,19.60
2022-10-18T11:42:16.131Z,16.10
2022-10-18T11:48:05.939Z,17.30
2022-10-18T11:53:59.349Z,18.00
2022-10-18T11:59:26.781Z,18.30
2022-10-18T12:04:48.997Z,15.30
2022-10-18T12:10:01.260Z,20.20
2022-10-18T12:15:13.846Z,16.00
2022-10-18T12:20:37.070Z,18.30
2022-10-18T12:25:43.563Z,18.70
2022-10-18T12:31:06.403Z,15.00
2022-10-18T12:36:29.069Z,15.40
2022-10-18T12:41:33.971Z,19.00
2022-10-18T12:46:46.987Z,18.20
2022-10-18T12:51:55.022Z,17.50
2022-10-18T12:56:59.572Z,16.40
2022-10-18T13:02:05.436Z,17.70
2022-10-18T13:07:08.313Z,17.00
2022-10-18T13:12:13.818Z,19.80
2022-10-18T13:17:41.489Z,17.70
2022-10-18T13:23:11.849Z,18.30
2022-10-18T13:28:21.478Z,18.40
2022-10-18T13:33:51.913Z,18.30
2022-10-18T13:39:04.911Z,18.80
2022-10-18T13:44:30.462Z,17.80
2022-10-18T13:49:39.191Z,16.80
2022-10-18T13:55:16.402Z,17.70
2022-10-18T14:00:30.097Z,21.50
2022-10-18T14:06:26.768Z,20.10
2022-10-18T14:11:37.241Z,21.00
2022-10-18T14:17:01.102Z,20.60
2022-10-18T14:22:19.246Z,20.10
2022-10-18T14:32:30.558Z,24.20
2022-10-18T14:37:40.845Z,29.10
2022-10-18T14:42:48.408Z,26.90
2022-10-18T14:47:52.213Z,28.70
2022-10-18T14:52:54.836Z,23.60
2022-10-18T14:57:58.602Z,22.50
2022-10-18T15:03:03.771Z,17.70
2022-10-18T15:08:06.692Z,20.50
2022-10-18T15:13:16.435Z,20.30
2022-10-18T15:18:25.591Z,19.30
2022-10-18T15:23:31.289Z,25.50
2022-10-18T15:28:51.053Z,23.40
2022-10-18T15:33:55.552Z,21.40
2022-10-18T15:39:16.744Z,23.40
2022-10-18T15:44:28.011Z,16.30
2022-10-18T15:49:56.231Z,10.80
2022-10-18T15:55:02.000Z,6.20
2022-10-18T16:00:07.678Z,5.40
2022-10-18T16:05:16.693Z,4.00
2022-10-18T16:10:19.442Z,4.20
2022-10-18T16:15:22.080Z,8.50
2022-10-18T16:20:25.113Z,6.00
2022-10-18T16:25:27.851Z,4.70
2022-10-18T16:30:30.623Z,8.00
2022-10-18T16:35:35.628Z,5.40
2022-10-18T16:40:41.139Z,4.80
2022-10-18T16:45:44.417Z,6.30
2022-10-18T16:50:47.911Z,6.90
2022-10-18T16:56:18.409Z,9.70
2022-10-18T17:01:22.438Z,9.10
2022-10-18T17:06:28.260Z,9.00
2022-10-18T17:11:31.052Z,11.20
2022-10-18T17:16:35.220Z,11.90
2022-10-18T17:21:37.960Z,11.90
2022-10-18T17:26:42.518Z,11.70
2022-10-18T17:31:45.228Z,9.40
2022-10-18T17:36:47.974Z,10.90
2022-10-18T17:41:50.988Z,12.00
2022-10-18T17:46:54.122Z,10.20
2022-10-18T17:51:57.118Z,3.30
2022-10-18T17:56:59.814Z,2.90
2022-10-18T18:02:02.553Z,2.90
2022-10-18T18:07:05.215Z,3.10
2022-10-18T18:12:07.830Z,3.70
2022-10-18T18:17:10.503Z,6.40
2022-10-18T18:22:14.153Z,6.20
2022-10-18T18:27:16.786Z,4.60
2022-10-18T18:32:19.507Z,3.90
2022-10-18T18:37:22.309Z,6.10
2022-10-18T18:42:25.106Z,3.10
2022-10-18T18:47:28.158Z,4.00
2022-10-18T18:52:31.205Z,5.80
2022-10-18T18:57:34.352Z,4.40
2022-10-18T19:02:37.236Z,6.30
2022-10-18T19:07:39.946Z,6.00
2022-10-18T19:12:42.681Z,7.20
2022-10-18T19:17:45.438Z,6.30
2022-10-18T19:22:48.215Z,6.30
2022-10-18T19:27:50.915Z,4.70
2022-10-18T19:33:01.136Z,6.50
2022-10-18T19:38:06.192Z,5.00
2022-10-18T19:43:08.855Z,4.60
2022-10-18T19:48:13.520Z,3.20
2022-10-18T19:53:24.765Z,4.40
2022-10-18T19:59:07.151Z,5.40
2022-10-18T20:04:10.679Z,4.60
2022-10-18T20:09:19.397Z,4.50
2022-10-18T20:14:24.302Z,4.90
2022-10-18T20:19:27.056Z,5.60
2022-10-18T20:24:41.115Z,4.90
2022-10-18T20:29:47.150Z,6.50
2022-10-18T20:34:52.890Z,5.70
2022-10-18T20:39:55.749Z,5.30
2022-10-18T20:44:59.441Z,5.40
2022-10-18T20:50:05.568Z,5.50
2022-10-18T20:55:13.130Z,6.80
2022-10-18T21:00:21.543Z,4.40
2022-10-18T21:05:24.608Z,5.10
2022-10-18T21:10:27.435Z,6.00
2022-10-18T21:15:33.216Z,6.60
2022-10-18T21:20:36.682Z,6.60
2022-10-18T21:25:48.247Z,8.30
2022-10-18T21:43:13.088Z,8.90
2022-10-18T21:48:56.531Z,10.70
2022-10-18T22:55:07.469Z,17.10
2022-10-18T23:01:35.890Z,15.60
2022-10-18T23:07:19.204Z,18.60
2022-10-18T23:12:22.199Z,15.60
2022-10-18T23:19:06.009Z,14.10
2022-10-18T23:24:08.892Z,13.50
2022-10-18T23:29:11.803Z,15.70
2022-10-18T23:34:15.305Z,11.60
2022-10-18T23:53:42.457Z,14.00
